Terminal Aerodrome Forecast
Issued by NWS Shreveport, LA

Home | Current Version | Previous Version | Text Only | Print | Product List | Glossary On
Versions: 1 2 3 4 5 6 7 8 9 10 11 12 13 14 15 16 17
000
FTUS44 KSHV 191423 AAB
TAFMLU
TAF AMD
KMLU 191423Z 1914/2012 VRB03KT 1/4SM FG VV002
      TEMPO 1916/1917 2SM BR OVC005
     FM191700 13005KT P6SM BKN010 OVC020
      TEMPO 1917/1919 3SM BR OVC005
     FM192100 13006KT P6SM SCT030 BKN250
     FM200000 13004KT P6SM FEW040 BKN250=

USA.gov is the U.S. government's official web portal to all federal, state and local government web resources and services.